createdAt,value
2022-11-22T00:00:28.141Z,21.00
2022-11-22T00:02:55.596Z,21.35
2022-11-22T00:05:23.159Z,20.52
2022-11-22T00:07:50.658Z,19.85
2022-11-22T00:10:18.394Z,20.17
2022-11-22T00:12:45.802Z,21.55
2022-11-22T00:15:13.564Z,21.27
2022-11-22T00:17:41.327Z,22.13
2022-11-22T00:20:10.700Z,21.45
2022-11-22T00:22:44.022Z,22.15
2022-11-22T00:25:12.316Z,21.98
2022-11-22T00:27:39.698Z,21.45
2022-11-22T00:30:07.702Z,21.50
2022-11-22T00:32:35.122Z,21.75
2022-11-22T00:35:02.679Z,21.05
2022-11-22T00:37:30.038Z,21.30
2022-11-22T00:39:57.572Z,23.00
2022-11-22T00:42:24.962Z,22.65
2022-11-22T00:44:52.379Z,24.48
2022-11-22T00:47:19.838Z,20.67
2022-11-22T00:49:47.362Z,20.17
2022-11-22T00:52:14.870Z,22.13
2022-11-22T00:54:42.377Z,20.35
2022-11-22T00:57:09.787Z,18.95
2022-11-22T00:59:37.221Z,19.90
2022-11-22T01:02:04.661Z,20.73
2022-11-22T01:04:32.116Z,21.75
2022-11-22T01:06:59.600Z,18.55
2022-11-22T01:09:27.051Z,19.42
2022-11-22T01:11:54.611Z,18.98
2022-11-22T01:14:22.029Z,17.98
2022-11-22T01:16:49.644Z,18.00
2022-11-22T01:19:17.060Z,18.25
2022-11-22T01:21:44.699Z,18.13
2022-11-22T01:24:12.132Z,17.25
2022-11-22T01:26:39.658Z,18.65
2022-11-22T01:29:07.206Z,19.55
2022-11-22T01:31:34.657Z,18.63
2022-11-22T01:34:02.085Z,19.27
2022-11-22T01:36:29.523Z,19.75
2022-11-22T01:38:56.967Z,19.13
2022-11-22T01:41:24.511Z,19.60
2022-11-22T01:43:51.951Z,19.75
2022-11-22T01:46:24.068Z,18.33
2022-11-22T01:49:00.298Z,19.65
2022-11-22T01:51:33.328Z,22.05
2022-11-22T01:54:03.599Z,21.00
2022-11-22T01:56:31.574Z,20.38
2022-11-22T01:59:00.994Z,22.83
2022-11-22T02:01:29.070Z,21.90
2022-11-22T02:03:57.473Z,20.77
2022-11-22T02:06:26.899Z,20.52
2022-11-22T02:09:03.202Z,21.77
2022-11-22T02:11:33.997Z,20.80
2022-11-22T02:14:01.976Z,22.50
2022-11-22T02:16:30.836Z,20.23
2022-11-22T02:18:58.221Z,21.17
2022-11-22T02:21:25.602Z,21.98
2022-11-22T02:23:57.435Z,19.67
2022-11-22T02:26:26.577Z,20.05
2022-11-22T02:28:54.240Z,19.90
2022-11-22T02:31:40.654Z,21.50
2022-11-22T02:34:08.278Z,20.73
2022-11-22T02:36:40.505Z,19.05
2022-11-22T02:39:08.587Z,23.35
2022-11-22T02:41:36.327Z,22.35
2022-11-22T02:44:03.886Z,19.33
2022-11-22T02:46:31.296Z,19.45
2022-11-22T02:48:58.738Z,19.75
2022-11-22T02:51:26.591Z,20.77
2022-11-22T02:53:54.296Z,21.45
2022-11-22T02:56:21.694Z,20.50
2022-11-22T02:58:49.386Z,20.80
2022-11-22T03:01:16.822Z,19.50
2022-11-22T03:03:44.327Z,18.40
2022-11-22T03:06:11.737Z,20.00
2022-11-22T03:08:39.337Z,19.73
2022-11-22T03:11:06.731Z,22.88
2022-11-22T03:13:34.264Z,22.52
2022-11-22T03:16:01.643Z,18.63
2022-11-22T03:18:29.027Z,20.05
2022-11-22T03:20:56.451Z,20.45
2022-11-22T03:23:23.886Z,19.80
2022-11-22T03:25:51.258Z,21.58
2022-11-22T03:28:22.618Z,22.25
2022-11-22T03:30:50.170Z,21.70
2022-11-22T03:33:17.521Z,21.67
2022-11-22T03:35:44.880Z,21.80
2022-11-22T03:38:12.245Z,22.25
2022-11-22T03:40:39.749Z,23.92
2022-11-22T03:43:07.122Z,20.27
2022-11-22T03:45:34.597Z,20.75
2022-11-22T03:48:01.984Z,22.92
2022-11-22T03:50:29.437Z,21.10
2022-11-22T03:52:56.834Z,24.05
2022-11-22T03:55:24.253Z,23.88
2022-11-22T03:57:51.698Z,24.10
2022-11-22T04:00:19.232Z,22.00
2022-11-22T04:02:46.618Z,20.85
2022-11-22T04:05:14.039Z,22.48
2022-11-22T04:07:41.542Z,20.90
2022-11-22T04:10:09.403Z,22.48
2022-11-22T04:12:37.085Z,21.45
2022-11-22T04:15:07.746Z,23.35
2022-11-22T04:17:41.356Z,24.17
2022-11-22T04:20:29.549Z,24.92
2022-11-22T04:22:58.127Z,23.67
2022-11-22T04:25:26.893Z,24.42
2022-11-22T04:27:54.838Z,22.75
2022-11-22T04:30:42.433Z,22.88
2022-11-22T04:33:10.493Z,37.15
2022-11-22T04:35:38.296Z,59.13
2022-11-22T04:38:05.798Z,62.17
2022-11-22T04:40:33.493Z,32.90
2022-11-22T04:43:20.230Z,23.67
2022-11-22T04:45:47.992Z,23.63
2022-11-22T04:48:15.729Z,23.92
2022-11-22T04:51:02.357Z,25.35
2022-11-22T04:53:30.245Z,26.75
2022-11-22T04:55:57.982Z,24.67
2022-11-22T04:58:25.424Z,25.92
2022-11-22T05:00:53.184Z,23.10
2022-11-22T05:03:20.730Z,25.00
2022-11-22T05:05:48.240Z,24.00
2022-11-22T05:08:15.984Z,25.40
2022-11-22T05:10:58.535Z,26.60
2022-11-22T05:13:33.717Z,26.70
2022-11-22T05:16:01.784Z,26.88
2022-11-22T05:18:29.550Z,25.05
2022-11-22T05:20:57.160Z,25.33
2022-11-22T05:23:43.659Z,26.58
2022-11-22T05:26:11.559Z,27.55
2022-11-22T05:28:39.694Z,31.48
2022-11-22T05:31:11.122Z,27.27
2022-11-22T05:33:39.446Z,29.98
2022-11-22T05:36:07.402Z,29.05
2022-11-22T05:38:38.262Z,27.10
2022-11-22T05:41:06.842Z,28.23
2022-11-22T05:43:34.266Z,27.08
2022-11-22T05:46:10.732Z,26.73
2022-11-22T05:48:38.888Z,31.85
2022-11-22T05:51:07.181Z,30.13
2022-11-22T05:53:34.822Z,32.83
2022-11-22T05:56:22.799Z,33.60
2022-11-22T05:58:50.854Z,29.00
2022-11-22T06:01:19.218Z,27.38
2022-11-22T06:03:47.206Z,34.88
2022-11-22T06:06:14.621Z,27.08
2022-11-22T06:08:43.441Z,25.98
2022-11-22T06:11:21.230Z,24.27
2022-11-22T06:13:49.706Z,25.73
2022-11-22T06:16:17.338Z,26.67
2022-11-22T06:18:44.982Z,29.15
2022-11-22T06:21:13.561Z,28.90
2022-11-22T06:23:41.001Z,25.45
2022-11-22T06:26:12.554Z,27.63
2022-11-22T06:28:40.478Z,28.02
2022-11-22T06:31:07.849Z,27.23
2022-11-22T06:33:35.452Z,32.78
2022-11-22T06:36:07.382Z,28.35
2022-11-22T06:38:35.055Z,27.05
2022-11-22T06:41:03.210Z,26.17
2022-11-22T06:43:31.041Z,29.35
2022-11-22T06:45:59.255Z,29.92
2022-11-22T06:48:27.357Z,28.85
2022-11-22T06:50:59.213Z,36.70
2022-11-22T06:53:46.165Z,52.13
2022-11-22T06:56:16.916Z,30.25
2022-11-22T06:58:44.928Z,30.88
2022-11-22T07:01:12.434Z,26.30
2022-11-22T07:03:40.653Z,28.02
2022-11-22T07:06:09.203Z,31.42
2022-11-22T07:08:36.974Z,28.33
2022-11-22T07:11:08.928Z,25.40
2022-11-22T07:13:36.657Z,22.75
2022-11-22T07:16:05.246Z,24.98
2022-11-22T07:18:33.274Z,23.73
2022-11-22T07:21:04.015Z,27.80
2022-11-22T07:23:34.409Z,23.75
2022-11-22T07:26:01.763Z,25.35
2022-11-22T07:28:29.307Z,23.15
2022-11-22T07:31:02.982Z,26.20
2022-11-22T07:33:30.782Z,25.73
2022-11-22T07:36:04.257Z,22.58
2022-11-22T07:38:31.722Z,25.05
2022-11-22T07:40:59.118Z,21.08
2022-11-22T07:43:26.545Z,25.05
2022-11-22T07:45:54.260Z,19.98
2022-11-22T07:48:21.910Z,21.40
2022-11-22T07:50:49.324Z,23.25
2022-11-22T07:53:16.746Z,20.30
2022-11-22T07:55:44.196Z,23.25
2022-11-22T07:58:11.647Z,22.85
2022-11-22T08:00:39.086Z,20.80
2022-11-22T08:03:08.273Z,19.50
2022-11-22T08:05:35.740Z,19.55
2022-11-22T08:08:03.148Z,21.08
2022-11-22T08:10:30.582Z,22.55
2022-11-22T08:13:00.801Z,22.88
2022-11-22T08:15:28.346Z,20.10
2022-11-22T08:17:55.790Z,24.58
2022-11-22T08:20:23.200Z,20.05
2022-11-22T08:22:50.629Z,24.88
2022-11-22T08:25:18.095Z,23.10
2022-11-22T08:27:45.494Z,23.00
2022-11-22T08:30:13.100Z,25.73
2022-11-22T08:32:40.466Z,23.60
2022-11-22T08:35:08.238Z,25.25
2022-11-22T08:37:35.940Z,25.15
2022-11-22T08:40:03.457Z,27.17
2022-11-22T08:42:30.873Z,23.65
2022-11-22T08:44:58.346Z,23.90
2022-11-22T08:47:25.717Z,23.73
2022-11-22T08:49:53.123Z,20.75
2022-11-22T08:52:20.526Z,22.10
2022-11-22T08:54:48.016Z,21.77
2022-11-22T08:57:15.373Z,24.08
2022-11-22T08:59:42.847Z,20.27
2022-11-22T09:02:10.936Z,20.15
2022-11-22T09:04:38.342Z,24.02
2022-11-22T09:09:53.207Z,21.42
2022-11-22T09:12:20.655Z,22.67
2022-11-22T09:14:48.246Z,21.60
2022-11-22T09:17:18.040Z,21.95
2022-11-22T09:19:45.801Z,25.30
2022-11-22T09:22:13.237Z,22.70
2022-11-22T09:24:40.680Z,24.75
2022-11-22T09:27:08.094Z,24.42
2022-11-22T09:29:35.533Z,26.33
2022-11-22T09:32:03.510Z,28.45
2022-11-22T09:34:30.943Z,24.02
2022-11-22T09:36:58.464Z,22.75
2022-11-22T09:39:25.933Z,20.52
2022-11-22T09:41:59.175Z,22.10
2022-11-22T09:44:32.751Z,21.90
2022-11-22T09:47:15.506Z,22.50
2022-11-22T09:49:43.019Z,21.73
2022-11-22T09:52:13.357Z,25.33
2022-11-22T09:54:56.801Z,25.30
2022-11-22T09:57:33.874Z,25.95
2022-11-22T10:00:21.594Z,25.00
2022-11-22T10:03:01.339Z,30.35
2022-11-22T10:05:32.928Z,28.10
2022-11-22T10:08:08.726Z,23.13
2022-11-22T10:10:40.607Z,23.38
2022-11-22T10:13:10.813Z,25.50
2022-11-22T10:15:47.616Z,24.35
2022-11-22T10:18:32.894Z,26.20
2022-11-22T10:21:00.970Z,25.15
2022-11-22T10:23:28.646Z,29.48
2022-11-22T10:26:00.160Z,23.98
2022-11-22T10:28:36.440Z,27.92
2022-11-22T10:31:07.184Z,24.38
2022-11-22T10:33:53.254Z,25.73
2022-11-22T10:36:23.725Z,27.60
2022-11-22T10:38:54.364Z,25.40
2022-11-22T10:41:40.491Z,24.50
2022-11-22T10:44:13.899Z,26.05
2022-11-22T10:46:44.421Z,25.10
2022-11-22T10:49:38.249Z,33.20
2022-11-22T10:52:13.683Z,31.70
2022-11-22T10:54:41.119Z,23.25
2022-11-22T10:57:08.677Z,24.60
2022-11-22T10:59:36.125Z,24.08
2022-11-22T11:02:16.387Z,25.80
2022-11-22T11:04:44.137Z,26.05
2022-11-22T11:07:17.868Z,24.42
2022-11-22T11:12:37.781Z,37.50
2022-11-22T11:15:06.132Z,47.63
2022-11-22T11:17:36.370Z,24.33
2022-11-22T11:20:05.701Z,24.17
2022-11-22T11:23:06.389Z,25.40
2022-11-22T11:25:28.205Z,23.48
2022-11-22T11:27:58.009Z,20.35
2022-11-22T11:30:25.503Z,19.70
2022-11-22T11:32:54.395Z,21.60
2022-11-22T11:35:23.044Z,20.20
2022-11-22T11:37:50.514Z,23.70
2022-11-22T11:40:29.041Z,22.75
2022-11-22T11:43:16.871Z,24.17
2022-11-22T11:45:44.673Z,24.33
2022-11-22T11:48:30.664Z,28.38
2022-11-22T11:51:07.458Z,30.67
2022-11-22T11:53:35.292Z,28.33
2022-11-22T11:56:21.729Z,25.90
2022-11-22T11:58:52.827Z,30.83
2022-11-22T12:01:20.897Z,27.52
2022-11-22T12:03:59.281Z,30.85
2022-11-22T12:06:30.628Z,28.40
2022-11-22T12:08:58.755Z,26.77
2022-11-22T12:11:41.369Z,29.15
2022-11-22T12:14:19.866Z,29.02
2022-11-22T12:17:02.499Z,26.73
2022-11-22T12:19:33.500Z,24.52
2022-11-22T12:22:24.287Z,25.52
2022-11-22T12:25:31.434Z,24.88
2022-11-22T12:27:57.477Z,25.63
2022-11-22T12:30:25.145Z,25.73
2022-11-22T12:32:57.021Z,26.33
2022-11-22T12:35:25.119Z,25.63
2022-11-22T12:38:04.500Z,23.75
2022-11-22T12:40:46.050Z,24.73
2022-11-22T12:43:27.141Z,27.73
2022-11-22T12:46:01.513Z,26.30
2022-11-22T12:48:30.834Z,29.63
2022-11-22T12:51:01.960Z,25.48
2022-11-22T12:53:31.616Z,26.73
2022-11-22T12:56:01.874Z,25.35
2022-11-22T12:58:41.345Z,26.95
2022-11-22T13:01:26.392Z,24.92
2022-11-22T13:03:54.247Z,28.70
2022-11-22T13:06:24.800Z,28.45
2022-11-22T13:09:04.430Z,27.25
2022-11-22T13:11:35.194Z,31.85
2022-11-22T13:14:20.545Z,26.60
2022-11-22T13:16:50.333Z,25.52
2022-11-22T13:19:18.871Z,27.92
2022-11-22T13:22:04.262Z,29.55
2022-11-22T13:24:47.170Z,30.08
2022-11-22T13:27:25.537Z,28.75
2022-11-22T13:29:54.974Z,27.23
2022-11-22T13:32:23.954Z,28.75
2022-11-22T13:35:07.064Z,30.95
2022-11-22T13:37:42.643Z,29.58
2022-11-22T13:40:24.709Z,39.78
2022-11-22T13:43:14.634Z,30.17
2022-11-22T13:46:05.037Z,29.50
2022-11-22T13:48:58.725Z,35.40
2022-11-22T13:51:46.419Z,31.65
2022-11-22T13:54:33.244Z,33.83
2022-11-22T13:57:02.233Z,37.42
2022-11-22T13:59:29.864Z,38.17
2022-11-22T14:01:58.657Z,38.78
2022-11-22T14:04:26.883Z,40.00
2022-11-22T14:07:03.818Z,42.55
2022-11-22T14:09:36.289Z,39.70
2022-11-22T14:12:17.933Z,38.08
2022-11-22T14:14:51.650Z,39.17
2022-11-22T14:17:41.713Z,38.78
2022-11-22T14:20:17.705Z,42.13
2022-11-22T14:23:03.832Z,42.50
2022-11-22T14:25:39.079Z,50.80
2022-11-22T14:30:41.420Z,44.38
2022-11-22T14:33:29.521Z,47.10
2022-11-22T14:36:03.001Z,48.67
2022-11-22T14:38:32.208Z,47.35
2022-11-22T14:41:18.378Z,49.60
2022-11-22T14:43:46.477Z,45.75
2022-11-22T14:46:51.142Z,46.15
2022-11-22T14:49:28.120Z,53.15
2022-11-22T14:51:56.475Z,48.55
2022-11-22T14:54:26.069Z,43.70
2022-11-22T14:56:55.955Z,46.92
2022-11-22T14:59:40.287Z,54.53
2022-11-22T15:02:26.621Z,47.67
2022-11-22T15:09:11.525Z,55.05
2022-11-22T15:09:13.538Z,52.80
2022-11-22T15:11:08.531Z,44.97
2022-11-22T15:13:43.635Z,47.20
2022-11-22T15:59:44.123Z,42.70
2022-11-22T16:02:14.688Z,49.75
2022-11-22T16:04:47.770Z,40.70
2022-11-22T16:07:24.411Z,37.15
2022-11-22T16:09:52.246Z,34.60
2022-11-22T16:12:30.343Z,32.03
2022-11-22T16:14:58.129Z,36.30
2022-11-22T16:17:28.551Z,30.58
2022-11-22T16:20:14.810Z,32.50
2022-11-22T16:22:42.262Z,26.48
2022-11-22T16:25:42.514Z,26.98
2022-11-22T16:28:18.778Z,26.58
2022-11-22T16:30:46.501Z,26.73
2022-11-22T16:33:14.089Z,27.08
2022-11-22T16:35:41.779Z,28.30
2022-11-22T16:38:09.987Z,22.15
2022-11-22T16:40:42.464Z,25.05
2022-11-22T16:43:17.165Z,26.98
2022-11-22T16:45:45.193Z,27.10
2022-11-22T16:48:35.083Z,24.42
2022-11-22T16:51:04.399Z,25.17
2022-11-22T16:53:37.220Z,27.08
2022-11-22T16:56:04.780Z,24.70
2022-11-22T16:58:32.146Z,22.45
2022-11-22T17:00:59.867Z,24.63
2022-11-22T17:03:29.801Z,23.23
2022-11-22T17:05:57.323Z,19.23
2022-11-22T17:08:24.854Z,33.35
2022-11-22T17:10:53.194Z,22.20
2022-11-22T17:13:22.374Z,21.48
2022-11-22T17:15:50.142Z,22.60
2022-11-22T17:18:17.598Z,23.33
2022-11-22T17:20:45.209Z,21.83
2022-11-22T17:23:15.859Z,18.45
2022-11-22T17:25:43.373Z,23.15
2022-11-22T17:28:10.782Z,21.30
2022-11-22T17:30:38.286Z,21.90
2022-11-22T17:33:05.837Z,21.23
2022-11-22T17:35:37.061Z,24.73
2022-11-22T17:38:05.361Z,41.15
2022-11-22T17:40:32.916Z,27.50
2022-11-22T17:43:01.543Z,26.05
2022-11-22T17:45:29.271Z,19.58
2022-11-22T17:47:59.930Z,21.58
2022-11-22T17:50:27.540Z,22.45
2022-11-22T17:52:55.023Z,22.10
2022-11-22T17:55:22.479Z,22.95
2022-11-22T17:57:54.592Z,20.73
2022-11-22T18:00:29.686Z,19.63
2022-11-22T18:02:57.448Z,19.92
2022-11-22T18:05:24.902Z,19.50
2022-11-22T18:07:53.951Z,17.65
2022-11-22T18:10:21.450Z,20.52
2022-11-22T18:13:13.399Z,18.55
2022-11-22T18:15:36.477Z,19.50
2022-11-22T18:18:03.853Z,20.70
2022-11-22T18:20:31.268Z,17.90
2022-11-22T18:22:58.787Z,19.98
2022-11-22T18:25:26.334Z,19.45
2022-11-22T18:27:53.741Z,20.35
2022-11-22T18:30:21.142Z,21.58
2022-11-22T18:32:48.518Z,21.17
2022-11-22T18:35:16.054Z,21.15
2022-11-22T18:37:44.039Z,20.17
2022-11-22T18:40:12.100Z,21.27
2022-11-22T18:42:39.586Z,21.08
2022-11-22T18:45:08.069Z,20.35
2022-11-22T18:47:35.546Z,20.48
2022-11-22T18:50:03.231Z,17.75
2022-11-22T18:52:34.610Z,17.35
2022-11-22T18:55:02.090Z,20.17
2022-11-22T18:57:29.550Z,18.85
2022-11-22T18:59:57.103Z,20.15
2022-11-22T19:02:26.020Z,19.15
2022-11-22T19:04:53.775Z,19.80
2022-11-22T19:07:21.943Z,22.45
2022-11-22T19:09:49.746Z,18.10
2022-11-22T19:12:17.177Z,15.57
2022-11-22T19:14:44.582Z,15.85
2022-11-22T19:17:12.022Z,18.73
2022-11-22T19:19:39.441Z,17.48
2022-11-22T19:22:06.826Z,18.30
2022-11-22T19:24:34.447Z,18.15
2022-11-22T19:27:01.890Z,18.67
2022-11-22T19:29:29.574Z,20.02
2022-11-22T19:31:57.412Z,20.35
2022-11-22T19:34:24.846Z,18.30
2022-11-22T19:36:52.378Z,21.00
2022-11-22T19:39:20.414Z,19.58
2022-11-22T19:41:47.977Z,21.58
2022-11-22T19:44:15.369Z,19.10
2022-11-22T19:46:42.977Z,21.13
2022-11-22T19:49:10.831Z,18.50
2022-11-22T19:51:39.065Z,18.25
2022-11-22T19:54:07.126Z,20.90
2022-11-22T19:56:35.818Z,22.67
2022-11-22T19:59:04.637Z,23.05
2022-11-22T20:01:33.095Z,17.52
2022-11-22T20:04:01.903Z,17.85
2022-11-22T20:06:29.436Z,16.83
2022-11-22T20:09:10.978Z,16.52
2022-11-22T20:11:39.778Z,19.17
2022-11-22T20:14:07.490Z,19.23
2022-11-22T20:16:35.618Z,22.98
2022-11-22T20:19:05.311Z,17.48
2022-11-22T20:21:33.640Z,21.02
2022-11-22T20:24:01.094Z,18.67
2022-11-22T20:26:29.095Z,21.27
2022-11-22T20:28:58.221Z,18.17
2022-11-22T20:31:26.013Z,17.10
2022-11-22T20:33:54.224Z,19.02
2022-11-22T20:36:22.825Z,19.50
2022-11-22T20:38:50.955Z,18.02
2022-11-22T20:41:19.414Z,17.75
2022-11-22T20:43:46.897Z,19.52
2022-11-22T20:46:19.274Z,18.60
2022-11-22T20:48:52.596Z,19.08
2022-11-22T20:51:21.582Z,16.05
2022-11-22T20:53:49.090Z,16.85
2022-11-22T20:56:16.673Z,18.88
2022-11-22T20:58:44.597Z,17.23
2022-11-22T21:01:17.024Z,17.60
2022-11-22T21:03:44.843Z,16.85
2022-11-22T21:06:12.875Z,17.27
2022-11-22T21:08:40.445Z,16.52
2022-11-22T21:11:15.116Z,16.90
2022-11-22T21:13:43.157Z,17.83
2022-11-22T21:16:22.135Z,17.65
2022-11-22T21:18:57.372Z,18.25
2022-11-22T21:21:25.863Z,16.73
2022-11-22T21:23:55.344Z,19.67
2022-11-22T21:26:23.727Z,14.75
2022-11-22T21:28:51.542Z,16.52
2022-11-22T21:31:19.082Z,16.67
2022-11-22T21:33:47.002Z,17.13
2022-11-22T21:36:14.649Z,15.68
2022-11-22T21:38:42.132Z,16.33
2022-11-22T21:44:00.520Z,16.70
2022-11-22T21:46:27.887Z,16.27
2022-11-22T21:48:56.102Z,16.92
2022-11-22T21:51:26.322Z,16.67
2022-11-22T21:53:57.746Z,17.05
2022-11-22T21:56:25.657Z,14.95
2022-11-22T21:58:53.046Z,15.35
2022-11-22T22:01:20.561Z,15.75
2022-11-22T22:03:48.030Z,15.75
2022-11-22T22:06:15.438Z,14.73
2022-11-22T22:08:42.922Z,13.77
2022-11-22T22:11:10.312Z,13.95
2022-11-22T22:13:37.944Z,14.88
2022-11-22T22:16:12.977Z,15.48
2022-11-22T22:18:40.478Z,14.82
2022-11-22T22:21:09.251Z,16.23
2022-11-22T22:23:37.372Z,16.83
2022-11-22T22:26:05.786Z,14.50
2022-11-22T22:28:34.347Z,15.50
2022-11-22T22:31:24.230Z,12.65
2022-11-22T22:33:53.790Z,14.40
2022-11-22T22:36:21.507Z,16.95
2022-11-22T22:38:49.151Z,14.07
2022-11-22T22:41:16.673Z,14.32
2022-11-22T22:43:46.700Z,14.35
2022-11-22T22:46:18.652Z,14.32
2022-11-22T22:48:46.694Z,15.20
2022-11-22T22:51:15.276Z,13.90
2022-11-22T22:53:43.578Z,15.50
2022-11-22T22:56:11.567Z,12.73
2022-11-22T22:58:39.466Z,12.88
2022-11-22T23:01:06.983Z,13.48
2022-11-22T23:03:34.721Z,12.38
2022-11-22T23:06:05.689Z,14.32
2022-11-22T23:08:33.117Z,13.85
2022-11-22T23:11:07.513Z,13.52
2022-11-22T23:13:39.481Z,14.02
2022-11-22T23:16:07.870Z,14.10
2022-11-22T23:18:36.406Z,14.48
2022-11-22T23:21:04.690Z,12.50
2022-11-22T23:23:32.105Z,13.73
2022-11-22T23:26:03.506Z,14.27
2022-11-22T23:28:31.102Z,17.05
2022-11-22T23:31:04.544Z,12.55
2022-11-22T23:33:32.019Z,14.50
2022-11-22T23:36:09.561Z,12.80
2022-11-22T23:38:37.203Z,15.65
2022-11-22T23:41:05.111Z,14.07
2022-11-22T23:43:32.766Z,13.45
2022-11-22T23:46:00.153Z,13.73
2022-11-22T23:48:28.221Z,13.57
2022-11-22T23:50:55.720Z,21.83
2022-11-22T23:53:23.067Z,13.18
2022-11-22T23:55:50.435Z,14.73
2022-11-22T23:58:17.862Z,16.30
